Time;durP1;ratioP1;P1;durP2;ratioP2;P2;SDS_P1;SDS_P2;PMS_P1;PMS_P2;Temp;Humidity;BMP_temperature;BMP_pressure;BME280_temperature;BME280_humidity;BME280_pressure;Samples;Min_cycle;Max_cycle;Signal;HPM_P1;HPM_P2
2022/05/30 00:00:28;;;;;;;3.77;2.03;;;13.70;93.00;;;;;;5120049;28;20458;-72
2022/05/30 00:02:55;;;;;;;4.57;1.33;;;13.70;93.00;;;;;;5120273;28;20449;-72
2022/05/30 00:05:25;;;;;;;4.30;1.60;;;13.70;92.90;;;;;;5118403;28;20455;-72
2022/05/30 00:07:52;;;;;;;3.67;1.87;;;13.70;92.90;;;;;;5117140;28;20439;-72
2022/05/30 00:10:20;;;;;;;4.83;1.70;;;13.70;93.00;;;;;;5116677;28;20491;-72
2022/05/30 00:12:47;;;;;;;3.10;1.60;;;13.70;93.00;;;;;;5116933;28;20490;-72
2022/05/30 00:15:18;;;;;;;3.53;1.70;;;13.70;93.00;;;;;;5116901;28;20455;-72
2022/05/30 00:17:45;;;;;;;2.90;1.67;;;13.70;93.00;;;;;;5116978;28;20431;-72
2022/05/30 00:20:13;;;;;;;2.70;1.50;;;13.70;93.00;;;;;;5116881;28;20470;-72
2022/05/30 00:22:41;;;;;;;5.17;1.47;;;13.60;93.00;;;;;;5117158;28;20443;-72
2022/05/30 00:25:08;;;;;;;4.83;1.57;;;13.60;93.00;;;;;;5116868;28;20439;-72
2022/05/30 00:27:35;;;;;;;4.50;1.60;;;13.60;92.90;;;;;;5116450;28;20960;-72
2022/05/30 00:30:03;;;;;;;2.30;1.50;;;13.60;92.90;;;;;;5116688;28;20467;-72
2022/05/30 00:32:30;;;;;;;4.63;1.83;;;13.60;93.00;;;;;;5116173;28;20965;-72
2022/05/30 00:34:57;;;;;;;4.43;1.40;;;13.60;92.90;;;;;;5116231;28;20442;-71
2022/05/30 00:37:25;;;;;;;2.20;1.40;;;13.60;92.90;;;;;;5116079;28;20888;-71
2022/05/30 00:39:54;;;;;;;4.40;1.40;;;13.50;92.80;;;;;;5116387;28;20492;-71
2022/05/30 00:42:26;;;;;;;3.97;1.70;;;13.50;92.80;;;;;;5116482;28;20542;-71
2022/05/30 00:44:53;;;;;;;3.13;1.20;;;13.50;92.80;;;;;;5116653;28;20459;-71
2022/05/30 00:47:22;;;;;;;8.33;2.07;;;13.50;92.80;;;;;;5116283;28;20465;-71
2022/05/30 00:49:50;;;;;;;4.13;1.70;;;13.50;92.80;;;;;;5116628;28;20474;-71
2022/05/30 00:52:21;;;;;;;2.73;1.67;;;13.50;92.80;;;;;;5098196;28;20888;-71
2022/05/30 00:54:52;;;;;;;4.10;1.77;;;13.50;92.80;;;;;;5116330;28;20438;-71
2022/05/30 00:57:21;;;;;;;4.00;1.43;;;13.50;92.80;;;;;;5116106;28;20431;-71
2022/05/30 00:59:51;;;;;;;4.47;1.70;;;13.50;92.90;;;;;;5115912;28;20466;-71
2022/05/30 01:02:19;;;;;;;3.60;1.60;;;13.40;92.90;;;;;;5115950;28;20477;-71
2022/05/30 01:07:32;;;;;;;4.93;1.53;;;13.40;92.90;;;;;;5115954;28;20530;-71
2022/05/30 01:10:01;;;;;;;6.43;1.50;;;13.40;92.90;;;;;;5115761;28;20562;-71
2022/05/30 01:12:40;;;;;;;5.17;1.93;;;13.40;93.00;;;;;;5115558;28;20479;-71
2022/05/30 01:15:10;;;;;;;1.97;1.50;;;13.40;92.90;;;;;;5115711;28;20434;-71
2022/05/30 01:17:48;;;;;;;4.83;2.30;;;13.40;93.00;;;;;;5114453;28;20462;-71
2022/05/30 01:20:23;;;;;;;4.93;1.53;;;13.40;93.10;;;;;;5115522;28;20493;-72
2022/05/30 01:23:17;;;;;;;5.33;1.30;;;13.40;93.20;;;;;;5115159;28;20915;-71
2022/05/30 01:26:17;;;;;;;3.03;2.10;;;13.40;93.20;;;;;;5107045;28;20459;-72
2022/05/30 01:28:52;;;;;;;3.90;1.43;;;13.30;93.20;;;;;;5111470;28;20463;-72
2022/05/30 01:31:19;;;;;;;3.67;1.60;;;13.30;93.20;;;;;;5115429;28;20559;-72
2022/05/30 01:33:46;;;;;;;3.23;1.47;;;13.30;93.20;;;;;;5115336;28;20447;-72
2022/05/30 01:36:13;;;;;;;2.63;1.30;;;13.30;93.30;;;;;;5115388;28;20454;-72
2022/05/30 01:38:40;;;;;;;4.00;2.60;;;13.30;93.30;;;;;;5115216;28;20517;-72
2022/05/30 01:41:07;;;;;;;4.93;1.80;;;13.30;93.30;;;;;;5115196;28;20837;-72
2022/05/30 01:43:34;;;;;;;7.63;2.20;;;13.30;93.40;;;;;;5115183;28;20434;-72
2022/05/30 01:46:06;;;;;;;3.03;1.43;;;13.30;93.40;;;;;;5114959;28;20454;-72
2022/05/30 01:48:33;;;;;;;5.27;1.90;;;13.30;93.40;;;;;;5115305;28;20439;-72
2022/05/30 01:51:00;;;;;;;5.00;1.90;;;13.30;93.40;;;;;;5114735;28;20491;-72
2022/05/30 01:53:28;;;;;;;7.87;1.87;;;13.30;93.40;;;;;;5114950;28;20455;-72
2022/05/30 01:55:55;;;;;;;1.73;1.43;;;13.30;93.40;;;;;;5114674;28;21001;-72
2022/05/30 01:58:22;;;;;;;2.80;1.50;;;13.30;93.40;;;;;;5114928;28;20792;-72
2022/05/30 02:00:49;;;;;;;7.23;2.53;;;13.30;93.40;;;;;;5114354;28;20484;-72
2022/05/30 02:03:18;;;;;;;3.13;1.40;;;13.30;93.40;;;;;;5096372;28;20968;-72
2022/05/30 02:05:45;;;;;;;5.93;2.00;;;13.20;93.40;;;;;;5114388;28;20822;-72
2022/05/30 02:08:16;;;;;;;6.47;1.90;;;13.30;93.50;;;;;;5114625;28;20823;-72
2022/05/30 02:10:42;;;;;;;3.00;1.40;;;13.20;93.40;;;;;;5114439;28;20558;-72
2022/05/30 02:13:09;;;;;;;4.60;1.63;;;13.20;93.50;;;;;;5114692;28;20452;-72
2022/05/30 02:17:00;;;;;;;5.80;2.20;;;13.20;93.70;;;;;;5114535;28;20462;-72
2022/05/30 02:18:23;;;;;;;5.43;1.87;;;13.20;93.80;;;;;;5113967;28;20445;-72
2022/05/30 02:20:50;;;;;;;5.57;2.00;;;13.20;93.80;;;;;;5114430;28;20467;-72
2022/05/30 02:23:18;;;;;;;4.30;1.83;;;13.20;93.80;;;;;;5114159;28;20866;-72
2022/05/30 02:25:45;;;;;;;5.90;1.70;;;13.20;93.80;;;;;;5114395;28;20447;-72
2022/05/30 02:28:12;;;;;;;5.13;2.10;;;13.20;93.90;;;;;;5114268;28;20439;-72
2022/05/30 02:30:39;;;;;;;5.53;2.00;;;13.20;93.90;;;;;;5114324;28;20478;-72
2022/05/30 02:38:37;;;;;;;6.30;1.90;;;13.20;94.00;;;;;;5114537;28;20402;-72
2022/05/30 02:41:04;;;;;;;5.57;2.03;;;13.20;93.90;;;;;;5114425;28;20845;-72
2022/05/30 02:43:31;;;;;;;6.37;2.00;;;13.20;93.80;;;;;;5114248;28;20455;-72
2022/05/30 02:45:58;;;;;;;2.93;1.60;;;13.20;93.80;;;;;;5114043;28;20458;-72
2022/05/30 02:48:25;;;;;;;8.53;2.47;;;13.20;93.90;;;;;;5114226;28;20480;-72
2022/05/30 02:50:53;;;;;;;4.13;1.80;;;13.20;94.00;;;;;;5114068;28;20471;-72
2022/05/30 02:53:20;;;;;;;5.00;2.30;;;13.20;94.00;;;;;;5114131;28;20496;-72
2022/05/30 02:55:47;;;;;;;3.03;1.77;;;13.20;94.10;;;;;;5114097;28;20454;-72
2022/05/30 02:58:14;;;;;;;6.60;1.80;;;13.20;94.10;;;;;;5114025;28;20454;-72
2022/05/30 03:00:41;;;;;;;5.23;2.40;;;13.20;94.10;;;;;;5113565;28;20516;-72
2022/05/30 03:03:08;;;;;;;5.70;2.20;;;13.20;94.10;;;;;;5114054;28;20447;-72
2022/05/30 03:05:34;;;;;;;2.20;1.70;;;13.20;94.20;;;;;;5113875;28;20450;-72
2022/05/30 03:08:06;;;;;;;8.43;1.87;;;13.10;94.20;;;;;;5114016;28;20457;-72
2022/05/30 03:10:34;;;;;;;3.30;1.70;;;13.10;94.30;;;;;;5113727;28;21001;-72
2022/05/30 03:13:00;;;;;;;2.83;1.43;;;13.10;94.40;;;;;;5113729;28;20478;-72
2022/05/30 03:15:27;;;;;;;2.50;2.00;;;13.10;94.40;;;;;;5114007;28;20449;-72
2022/05/30 03:17:54;;;;;;;4.90;2.07;;;13.10;94.50;;;;;;5113821;28;20431;-72
2022/05/30 03:20:21;;;;;;;8.00;2.20;;;13.10;94.60;;;;;;5113764;28;20489;-72
2022/05/30 03:22:48;;;;;;;3.30;2.17;;;13.00;94.60;;;;;;5113386;28;20788;-72
2022/05/30 03:25:17;;;;;;;5.13;1.90;;;13.00;94.60;;;;;;5113642;28;20451;-72
2022/05/30 03:27:44;;;;;;;7.43;2.73;;;13.00;94.70;;;;;;5113620;28;20447;-72
2022/05/30 03:30:13;;;;;;;9.37;2.57;;;13.00;94.80;;;;;;5113775;28;20467;-72
2022/05/30 03:32:39;;;;;;;12.33;2.90;;;13.00;94.90;;;;;;5113483;28;20483;-72
2022/05/30 03:35:07;;;;;;;3.90;2.00;;;13.00;94.90;;;;;;5113541;28;20462;-72
2022/05/30 03:37:36;;;;;;;6.47;2.60;;;13.00;95.00;;;;;;5113228;28;20946;-72
2022/05/30 03:40:04;;;;;;;4.13;2.33;;;13.00;95.10;;;;;;5113546;28;20506;-72
2022/05/30 03:42:32;;;;;;;5.07;2.57;;;13.00;95.10;;;;;;5117619;28;20556;-72
2022/05/30 03:44:59;;;;;;;9.00;2.60;;;13.00;95.00;;;;;;5117071;28;20815;-72
2022/05/30 03:47:26;;;;;;;4.10;1.93;;;13.00;94.90;;;;;;5117190;28;20994;-72
2022/05/30 03:49:59;;;;;;;4.37;2.27;;;13.00;95.00;;;;;;5117075;28;21004;-72
2022/05/30 03:52:25;;;;;;;4.73;2.80;;;13.00;95.10;;;;;;5117083;28;20582;-72
2022/05/30 03:54:53;;;;;;;4.73;2.93;;;13.00;95.10;;;;;;5117289;28;20450;-72
2022/05/30 03:57:19;;;;;;;3.80;2.33;;;13.00;95.10;;;;;;5117145;28;20482;-72
2022/05/30 03:59:47;;;;;;;5.90;2.53;;;13.00;95.00;;;;;;5117147;28;20523;-72
2022/05/30 04:02:14;;;;;;;2.97;2.03;;;12.90;94.90;;;;;;5117171;28;20445;-72
2022/05/30 04:04:41;;;;;;;3.87;2.17;;;13.00;94.90;;;;;;5117026;28;20457;-72
2022/05/30 04:07:08;;;;;;;6.87;2.47;;;13.00;94.80;;;;;;5116921;28;20500;-72
2022/05/30 04:09:35;;;;;;;4.53;2.13;;;13.00;94.80;;;;;;5116910;28;20483;-72
2022/05/30 04:12:02;;;;;;;7.40;2.40;;;13.00;94.70;;;;;;5116897;28;20474;-72
2022/05/30 04:14:31;;;;;;;5.67;2.03;;;13.00;94.60;;;;;;5116798;28;20470;-71
2022/05/30 04:16:59;;;;;;;4.30;1.93;;;13.00;94.40;;;;;;5117195;28;20443;-71
2022/05/30 04:19:25;;;;;;;7.53;2.30;;;13.00;94.40;;;;;;5116902;28;20506;-71
2022/05/30 04:21:52;;;;;;;6.20;3.00;;;13.00;94.40;;;;;;5116847;28;20443;-71
2022/05/30 04:24:19;;;;;;;8.00;2.00;;;13.00;94.40;;;;;;5116506;28;20453;-72
2022/05/30 04:26:46;;;;;;;8.20;2.80;;;13.00;94.30;;;;;;5116533;28;20446;-72
2022/05/30 04:29:13;;;;;;;3.97;2.00;;;13.00;94.30;;;;;;5116343;28;20445;-72
2022/05/30 04:31:39;;;;;;;6.80;2.60;;;13.00;94.30;;;;;;5132228;28;20486;-68
2022/05/30 04:34:08;;;;;;;7.00;2.40;;;13.00;94.40;;;;;;5132537;28;21001;-70
2022/05/30 04:36:35;;;;;;;6.17;2.47;;;13.10;94.30;;;;;;5132218;28;20528;-68
2022/05/30 04:39:01;;;;;;;6.37;2.50;;;13.10;94.30;;;;;;5133405;28;20442;-68
2022/05/30 04:41:28;;;;;;;8.60;2.90;;;13.10;94.20;;;;;;5132563;28;20454;-68
2022/05/30 04:43:55;;;;;;;7.10;2.53;;;13.10;94.20;;;;;;5133449;28;20447;-68
2022/05/30 04:46:22;;;;;;;7.73;2.87;;;13.10;94.30;;;;;;5132516;28;20454;-68
2022/05/30 04:48:49;;;;;;;10.60;3.00;;;13.20;94.40;;;;;;5133229;28;20442;-68
2022/05/30 04:51:17;;;;;;;6.00;2.60;;;13.20;94.40;;;;;;5131548;28;20467;-68
2022/05/30 04:53:44;;;;;;;6.70;2.73;;;13.30;94.30;;;;;;5132198;28;20536;-68
2022/05/30 04:56:11;;;;;;;5.37;2.20;;;13.30;94.30;;;;;;5131916;28;20447;-68
2022/05/30 04:58:37;;;;;;;5.03;2.20;;;13.30;94.20;;;;;;5132235;28;20525;-68
2022/05/30 05:01:07;;;;;;;5.60;2.10;;;13.40;94.00;;;;;;5131814;28;20478;-68
2022/05/30 05:03:37;;;;;;;3.80;2.10;;;13.40;93.80;;;;;;5131903;28;20430;-69
2022/05/30 05:06:05;;;;;;;4.07;2.07;;;13.40;93.80;;;;;;5132033;28;20447;-69
2022/05/30 05:08:44;;;;;;;3.67;2.40;;;13.50;93.80;;;;;;5131303;28;20446;-69
2022/05/30 05:11:18;;;;;;;7.70;2.70;;;13.60;93.80;;;;;;5132678;28;21019;-69
2022/05/30 05:13:45;;;;;;;3.27;1.90;;;13.60;93.70;;;;;;5132066;28;20965;-70
2022/05/30 05:16:12;;;;;;;3.63;2.00;;;13.60;93.50;;;;;;5132122;28;20473;-69
2022/05/30 05:18:39;;;;;;;7.23;2.30;;;13.70;93.40;;;;;;5131696;28;20446;-69
2022/05/30 05:21:06;;;;;;;5.90;2.37;;;13.70;93.30;;;;;;5131971;28;20474;-69
2022/05/30 05:23:33;;;;;;;6.50;2.30;;;13.80;93.30;;;;;;5133917;28;20430;-69
2022/05/30 05:26:08;;;;;;;7.20;2.40;;;13.80;93.30;;;;;;5132997;28;20443;-69
2022/05/30 05:28:34;;;;;;;5.40;2.13;;;13.90;93.20;;;;;;5132979;28;20430;-69
2022/05/30 05:31:01;;;;;;;6.57;2.20;;;13.90;92.90;;;;;;5132754;28;20466;-69
2022/05/30 05:33:28;;;;;;;7.10;2.50;;;14.00;92.80;;;;;;5132190;28;20479;-69
2022/05/30 05:35:55;;;;;;;3.40;1.90;;;14.00;92.60;;;;;;5132762;28;20507;-69
2022/05/30 05:38:22;;;;;;;7.73;2.37;;;14.10;92.60;;;;;;5133289;28;20454;-69
2022/05/30 05:40:49;;;;;;;7.33;3.50;;;14.20;92.20;;;;;;5132841;28;20520;-69
2022/05/30 05:43:17;;;;;;;3.90;2.30;;;14.20;92.10;;;;;;5133510;28;20443;-70
2022/05/30 05:45:46;;;;;;;7.80;2.47;;;14.30;92.20;;;;;;5132939;28;20447;-70
2022/05/30 05:48:13;;;;;;;8.03;2.70;;;14.30;92.30;;;;;;5132416;28;20461;-69
2022/05/30 05:50:40;;;;;;;6.77;2.53;;;14.40;92.20;;;;;;5133692;28;20454;-69
2022/05/30 05:53:07;;;;;;;5.87;2.70;;;14.40;91.90;;;;;;5133452;28;20482;-68
2022/05/30 05:55:35;;;;;;;7.27;2.33;;;14.50;91.90;;;;;;5130773;28;20451;-70
2022/05/30 05:58:02;;;;;;;7.80;2.47;;;14.50;91.90;;;;;;5131668;28;20462;-68
2022/05/30 06:00:32;;;;;;;8.80;2.40;;;14.50;91.80;;;;;;5131736;28;20467;-68
2022/05/30 06:02:59;;;;;;;6.30;2.70;;;14.60;91.70;;;;;;5132194;28;20439;-69
2022/05/30 06:05:26;;;;;;;9.27;2.27;;;14.60;91.80;;;;;;5132145;28;20443;-69
2022/05/30 06:07:53;;;;;;;5.77;2.47;;;14.70;91.70;;;;;;5132775;28;20439;-69
2022/05/30 06:10:21;;;;;;;7.87;2.87;;;14.70;91.70;;;;;;5132886;28;20455;-69
2022/05/30 06:12:48;;;;;;;4.73;3.00;;;14.80;91.90;;;;;;5131501;28;20475;-69
2022/05/30 06:15:18;;;;;;;6.10;2.27;;;14.90;91.90;;;;;;5132417;28;20439;-69
2022/05/30 06:17:47;;;;;;;6.87;2.50;;;15.00;91.40;;;;;;5132169;28;20408;-69
2022/05/30 06:20:16;;;;;;;9.20;3.53;;;15.10;91.50;;;;;;5132499;28;20463;-69
2022/05/30 06:22:43;;;;;;;4.73;2.50;;;15.10;91.70;;;;;;5132265;28;20439;-69
2022/05/30 06:25:10;;;;;;;7.67;2.60;;;15.30;91.70;;;;;;5131650;28;20443;-68
2022/05/30 06:27:37;;;;;;;8.70;2.50;;;15.40;91.60;;;;;;5131763;28;20438;-68
2022/05/30 06:30:05;;;;;;;6.37;2.80;;;15.50;91.30;;;;;;5131534;28;20467;-68
2022/05/30 06:32:32;;;;;;;7.40;2.77;;;15.60;90.90;;;;;;5132033;28;20485;-68
2022/05/30 06:35:00;;;;;;;8.47;3.70;;;15.80;90.50;;;;;;5131831;28;20458;-69
2022/05/30 06:37:27;;;;;;;7.80;2.70;;;15.80;89.30;;;;;;5131584;28;20443;-68
2022/05/30 06:39:54;;;;;;;8.33;2.73;;;15.90;88.00;;;;;;5131533;28;20467;-69
2022/05/30 06:42:21;;;;;;;9.70;4.00;;;16.00;87.10;;;;;;5133639;28;20454;-69
2022/05/30 06:44:48;;;;;;;10.10;3.33;;;16.00;86.20;;;;;;5133394;28;20451;-69
2022/05/30 06:47:14;;;;;;;8.00;4.17;;;16.10;85.50;;;;;;5133099;28;20504;-68
2022/05/30 06:49:41;;;;;;;7.13;3.43;;;16.20;85.50;;;;;;5131848;28;20470;-68
2022/05/30 06:52:11;;;;;;;7.93;3.47;;;16.30;85.00;;;;;;5132056;28;20443;-68
2022/05/30 06:54:38;;;;;;;7.50;3.30;;;16.40;84.60;;;;;;5131886;28;20508;-69
2022/05/30 06:59:50;;;;;;;5.50;2.80;;;16.60;82.90;;;;;;5132373;28;20445;-69
2022/05/30 07:02:17;;;;;;;6.27;3.43;;;16.70;82.00;;;;;;5132455;28;20443;-69
2022/05/30 07:04:44;;;;;;;6.97;3.23;;;16.80;82.40;;;;;;5133088;28;20447;-69
2022/05/30 07:07:12;;;;;;;7.10;2.70;;;16.90;83.20;;;;;;5132839;28;20454;-69
2022/05/30 07:09:39;;;;;;;6.47;3.00;;;17.10;82.90;;;;;;5132181;28;20477;-69
2022/05/30 07:12:08;;;;;;;11.10;3.43;;;17.20;82.00;;;;;;5131575;28;20443;-69
2022/05/30 07:14:35;;;;;;;8.40;2.73;;;17.40;81.20;;;;;;5132778;28;20496;-68
2022/05/30 07:17:02;;;;;;;8.10;2.33;;;17.60;80.40;;;;;;5135470;28;20453;-68
2022/05/30 07:19:30;;;;;;;6.33;2.40;;;17.80;79.30;;;;;;5134779;28;20462;-69
2022/05/30 07:21:58;;;;;;;6.80;2.77;;;18.00;75.10;;;;;;5136318;28;20464;-69
2022/05/30 07:24:26;;;;;;;8.57;2.60;;;18.10;71.80;;;;;;5136070;28;20446;-69
2022/05/30 07:26:53;;;;;;;9.13;2.67;;;18.10;71.00;;;;;;5137732;28;20433;-70
2022/05/30 07:29:20;;;;;;;5.73;2.73;;;18.00;69.20;;;;;;5136281;28;20435;-69
2022/05/30 07:31:46;;;;;;;7.73;2.70;;;17.90;68.60;;;;;;5136733;28;20495;-69
2022/05/30 07:34:13;;;;;;;8.10;3.10;;;17.90;69.20;;;;;;5136191;28;20483;-69
2022/05/30 07:36:40;;;;;;;6.20;2.50;;;17.70;69.20;;;;;;5139682;28;20502;-69
2022/05/30 07:39:07;;;;;;;4.40;2.30;;;17.60;69.90;;;;;;5141512;28;20435;-69
2022/05/30 07:41:40;;;;;;;8.33;1.67;;;17.50;71.20;;;;;;5137151;28;20445;-69
2022/05/30 07:44:07;;;;;;;11.63;2.50;;;17.40;71.30;;;;;;5135615;28;20427;-69
2022/05/30 07:46:34;;;;;;;12.27;3.00;;;17.40;71.70;;;;;;5135287;28;20454;-69
2022/05/30 07:49:01;;;;;;;6.20;2.20;;;17.30;70.50;;;;;;5136543;28;20443;-69
2022/05/30 07:51:27;;;;;;;9.03;2.60;;;17.30;70.30;;;;;;5138059;28;20447;-69
2022/05/30 07:53:54;;;;;;;6.40;1.93;;;17.30;69.80;;;;;;5136893;28;20486;-69
2022/05/30 07:56:21;;;;;;;4.93;2.77;;;17.40;70.10;;;;;;5135610;28;20966;-69
2022/05/30 07:58:49;;;;;;;8.93;2.20;;;17.40;70.20;;;;;;5136203;28;20918;-70
2022/05/30 08:01:19;;;;;;;3.23;2.07;;;17.50;70.40;;;;;;5136827;28;20459;-70
2022/05/30 08:03:47;;;;;;;7.63;2.37;;;17.60;70.00;;;;;;5136435;28;20427;-69
2022/05/30 08:06:17;;;;;;;4.73;2.17;;;17.70;71.00;;;;;;5136319;28;20442;-69
2022/05/30 08:08:44;;;;;;;8.40;2.17;;;17.90;71.90;;;;;;5136185;28;20439;-69
2022/05/30 08:11:15;;;;;;;4.00;1.73;;;18.10;70.50;;;;;;5135286;28;20455;-69
2022/05/30 08:13:41;;;;;;;3.40;1.40;;;18.30;69.40;;;;;;5135064;28;20478;-69
2022/05/30 08:16:10;;;;;;;10.00;1.83;;;18.40;66.10;;;;;;5136296;28;20449;-69
2022/05/30 08:18:36;;;;;;;5.97;2.07;;;18.50;62.80;;;;;;5135018;28;20427;-69
2022/05/30 08:21:04;;;;;;;5.17;2.30;;;18.70;59.60;;;;;;5135565;28;20463;-69
2022/05/30 08:23:32;;;;;;;4.20;2.33;;;18.80;60.80;;;;;;5135577;28;20454;-69
2022/05/30 08:25:58;;;;;;;9.10;2.13;;;19.10;61.50;;;;;;5135777;28;20449;-69
2022/05/30 08:28:25;;;;;;;4.23;2.37;;;19.30;60.00;;;;;;5134723;28;20442;-69
2022/05/30 08:30:52;;;;;;;5.07;2.00;;;19.60;59.60;;;;;;5134483;28;20459;-69
2022/05/30 08:33:22;;;;;;;6.53;2.20;;;19.80;58.80;;;;;;5134535;28;20471;-69
2022/05/30 08:36:00;;;;;;;7.23;2.17;;;20.20;58.90;;;;;;5116314;28;20439;-69
2022/05/30 08:38:26;;;;;;;5.90;1.90;;;20.50;57.60;;;;;;5133916;28;20488;-69
2022/05/30 08:43:41;;;;;;;3.30;1.40;;;21.00;56.20;;;;;;5135118;28;20414;-69
2022/05/30 08:46:10;;;;;;;6.83;1.83;;;21.20;57.00;;;;;;5133618;28;20451;-69
2022/05/30 08:48:46;;;;;;;9.47;2.00;;;21.20;55.20;;;;;;5134507;28;20515;-69
2022/05/30 08:51:30;;;;;;;5.73;2.10;;;21.10;53.80;;;;;;5135164;28;20530;-70
2022/05/30 08:54:24;;;;;;;7.57;2.30;;;20.90;54.20;;;;;;5134592;28;20471;-70
2022/05/30 08:56:54;;;;;;;4.40;1.97;;;20.80;54.00;;;;;;5134425;28;20510;-69
2022/05/30 08:59:31;;;;;;;6.10;1.90;;;20.70;54.70;;;;;;5134229;28;20462;-69
2022/05/30 09:02:06;;;;;;;5.83;2.13;;;20.60;55.00;;;;;;5135059;28;20925;-69
2022/05/30 09:04:39;;;;;;;3.80;2.17;;;20.30;53.00;;;;;;5134744;28;20446;-69
2022/05/30 09:07:11;;;;;;;6.90;2.40;;;20.20;53.00;;;;;;5134467;28;20419;-69
2022/05/30 09:09:44;;;;;;;4.83;1.60;;;20.10;52.30;;;;;;5134103;28;20471;-69
2022/05/30 09:12:18;;;;;;;4.80;1.90;;;20.00;52.20;;;;;;5134740;28;20427;-69
2022/05/30 09:14:48;;;;;;;6.27;1.83;;;19.90;50.40;;;;;;5133827;28;20466;-69
2022/05/30 09:17:20;;;;;;;7.13;1.77;;;19.70;51.80;;;;;;5134040;28;20434;-70
2022/05/30 09:19:48;;;;;;;8.20;2.43;;;19.70;52.20;;;;;;5134376;28;20459;-70
2022/05/30 09:22:16;;;;;;;6.67;1.93;;;19.80;52.70;;;;;;5133106;28;20431;-70
2022/05/30 09:25:55;;;;;;;5.50;1.87;;;19.90;52.50;;;;;;5131853;28;20450;-70
2022/05/30 09:27:32;;;;;;;3.07;1.90;;;19.90;52.40;;;;;;5133537;28;20471;-70
2022/05/30 09:30:01;;;;;;;5.57;1.83;;;20.00;51.70;;;;;;5133446;28;20466;-70
2022/05/30 09:32:38;;;;;;;6.00;2.27;;;20.20;52.70;;;;;;5133570;28;20451;-69
2022/05/30 09:35:26;;;;;;;8.70;2.23;;;20.40;52.50;;;;;;5134263;28;20471;-69
2022/05/30 09:38:07;;;;;;;3.60;1.80;;;20.50;53.10;;;;;;5134947;28;20431;-69
2022/05/30 09:40:40;;;;;;;6.00;2.13;;;20.60;50.90;;;;;;5135151;28;20482;-69
2022/05/30 09:43:07;;;;;;;4.03;1.57;;;20.60;50.00;;;;;;5133543;28;20427;-70
2022/05/30 09:45:35;;;;;;;5.87;2.30;;;20.60;50.00;;;;;;5133540;28;20447;-69
2022/05/30 09:48:04;;;;;;;3.57;1.60;;;20.50;50.20;;;;;;5132239;28;20451;-70
2022/05/30 09:50:41;;;;;;;5.13;1.67;;;20.30;48.40;;;;;;5133495;28;20442;-69
2022/05/30 09:53:07;;;;;;;5.23;1.77;;;20.30;49.20;;;;;;5133562;28;20445;-69
2022/05/30 09:55:37;;;;;;;6.20;1.93;;;20.30;50.10;;;;;;5132852;28;20439;-69
2022/05/30 09:58:06;;;;;;;6.83;1.73;;;20.30;50.60;;;;;;5133130;28;20438;-69
2022/05/30 10:00:38;;;;;;;6.47;1.80;;;20.50;50.70;;;;;;5133798;28;20462;-69
2022/05/30 10:03:11;;;;;;;4.83;2.03;;;20.60;50.40;;;;;;5133469;28;20438;-70
2022/05/30 10:05:40;;;;;;;4.60;1.73;;;20.60;49.30;;;;;;5133340;28;20443;-70
2022/05/30 10:08:22;;;;;;;10.70;3.00;;;20.60;49.20;;;;;;5133405;28;20452;-70
2022/05/30 10:10:51;;;;;;;5.13;1.73;;;20.50;49.00;;;;;;5132000;28;20992;-69
2022/05/30 10:13:34;;;;;;;6.07;2.03;;;20.70;48.70;;;;;;5132984;28;20482;-69
2022/05/30 10:16:01;;;;;;;4.53;1.80;;;20.90;44.60;;;;;;5132537;28;20415;-69
2022/05/30 10:18:30;;;;;;;4.20;1.80;;;21.40;45.70;;;;;;5131449;28;20427;-69
2022/05/30 10:21:29;;;;;;;4.53;1.20;;;22.30;44.10;;;;;;5132754;28;20467;-69
2022/05/30 10:30:03;;;;;;;6.47;1.80;;;26.40;36.70;;;;;;5130552;28;20485;-70
2022/05/30 10:32:34;;;;;;;4.00;1.43;;;27.70;35.70;;;;;;5132974;28;20433;-70
2022/05/30 10:35:16;;;;;;;4.13;1.47;;;28.20;34.50;;;;;;5133037;28;20452;-70
2022/05/30 10:38:12;;;;;;;3.70;1.47;;;28.40;32.70;;;;;;5132866;28;20437;-71
2022/05/30 10:40:48;;;;;;;8.10;1.50;;;28.20;31.60;;;;;;5133008;28;20474;-70
2022/05/30 10:43:23;;;;;;;5.03;1.90;;;27.60;32.30;;;;;;5133044;28;20415;-70
2022/05/30 10:45:54;;;;;;;4.50;1.77;;;27.10;32.90;;;;;;5133181;28;20498;-70
2022/05/30 10:48:28;;;;;;;7.83;1.77;;;26.40;33.50;;;;;;5133540;28;20443;-70
2022/05/30 10:50:59;;;;;;;4.43;1.50;;;25.70;34.00;;;;;;5133267;28;20473;-70
2022/05/30 10:53:33;;;;;;;5.23;2.03;;;25.10;34.60;;;;;;5133504;28;20441;-70
2022/05/30 10:56:15;;;;;;;2.97;1.60;;;24.60;35.70;;;;;;5134225;28;20434;-70
2022/05/30 10:58:47;;;;;;;3.47;1.80;;;24.20;37.30;;;;;;5132793;28;20431;-70
2022/05/30 11:01:24;;;;;;;5.67;1.63;;;23.70;37.40;;;;;;5132753;28;20463;-70
2022/05/30 11:04:03;;;;;;;7.83;2.13;;;23.40;38.60;;;;;;5132969;28;20425;-71
2022/05/30 11:06:34;;;;;;;4.63;1.40;;;23.00;38.60;;;;;;5131425;28;20843;-71
2022/05/30 11:09:08;;;;;;;7.87;2.07;;;22.80;38.90;;;;;;5131453;28;20451;-70
2022/05/30 11:11:42;;;;;;;7.10;2.00;;;22.70;39.30;;;;;;5131502;28;20427;-70
2022/05/30 11:14:16;;;;;;;7.20;1.30;;;22.50;39.90;;;;;;5132343;28;20511;-70
2022/05/30 11:16:51;;;;;;;4.60;1.70;;;22.50;40.00;;;;;;5133190;28;20441;-70
2022/05/30 11:19:22;;;;;;;7.87;1.80;;;22.50;41.10;;;;;;5133516;28;20430;-70
2022/05/30 11:21:55;;;;;;;2.50;1.17;;;22.60;40.80;;;;;;5132780;28;20427;-70
2022/05/30 11:24:23;;;;;;;3.13;1.57;;;22.80;41.40;;;;;;5133210;28;20443;-70
2022/05/30 11:27:19;;;;;;;4.70;1.90;;;22.90;40.40;;;;;;5133699;28;20449;-70
2022/05/30 11:30:07;;;;;;;7.50;1.90;;;23.00;40.50;;;;;;5127177;28;20467;-70
2022/05/30 11:33:01;;;;;;;3.77;1.00;;;23.30;40.10;;;;;;5135988;28;20442;-71
2022/05/30 11:35:36;;;;;;;8.50;1.50;;;23.70;38.60;;;;;;5132984;28;20470;-71
2022/05/30 11:38:36;;;;;;;2.70;1.00;;;24.20;37.10;;;;;;5132858;28;20442;-70
2022/05/30 11:41:16;;;;;;;3.13;1.33;;;25.10;33.80;;;;;;5127999;28;20479;-70
2022/05/30 11:43:56;;;;;;;3.63;1.30;;;25.60;33.00;;;;;;5136349;28;20482;-70
2022/05/30 11:46:34;;;;;;;5.90;1.40;;;25.80;34.80;;;;;;5133451;28;20476;-70
2022/05/30 11:49:13;;;;;;;3.13;1.07;;;25.80;34.20;;;;;;5133017;28;20435;-70
2022/05/30 11:51:50;;;;;;;3.03;1.40;;;25.60;34.50;;;;;;5133548;28;20431;-70
2022/05/30 11:54:33;;;;;;;3.50;1.40;;;25.40;34.60;;;;;;5133899;28;20455;-70
2022/05/30 11:57:13;;;;;;;3.10;1.50;;;25.10;34.60;;;;;;5133200;28;20427;-70
2022/05/30 12:00:07;;;;;;;5.73;1.63;;;24.90;35.50;;;;;;5133156;28;20545;-70
2022/05/30 12:02:57;;;;;;;6.67;1.80;;;24.70;35.00;;;;;;5112001;28;20462;-70
2022/05/30 12:05:52;;;;;;;5.13;1.27;;;24.50;35.90;;;;;;5136850;28;20427;-70
2022/05/30 12:08:34;;;;;;;4.73;1.53;;;24.30;37.10;;;;;;5137261;28;20446;-70
2022/05/30 12:11:33;;;;;;;3.83;1.47;;;24.20;37.00;;;;;;5136573;28;20480;-70
2022/05/30 12:14:21;;;;;;;2.90;1.20;;;24.20;38.30;;;;;;5094073;28;20484;-70
2022/05/30 12:16:55;;;;;;;3.23;1.40;;;24.40;39.70;;;;;;5136125;28;20420;-70
2022/05/30 12:25:50;;;;;;;1.97;0.87;;;25.30;38.50;;;;;;5136528;28;20762;-70
2022/05/30 12:28:52;;;;;;;3.37;1.30;;;25.90;35.10;;;;;;5134997;28;20433;-70
2022/05/30 12:34:12;;;;;;;2.87;1.20;;;26.90;34.30;;;;;;5173159;27;20514;-70
2022/05/30 12:36:44;;;;;;;2.83;1.23;;;28.10;29.90;;;;;;5171787;27;20434;-70
2022/05/30 12:39:34;;;;;;;2.30;0.93;;;28.10;30.50;;;;;;5171836;27;20426;-71
2022/05/30 12:42:07;;;;;;;2.93;1.60;;;28.40;32.00;;;;;;5171855;27;20436;-70
2022/05/30 12:44:51;;;;;;;4.37;1.30;;;29.20;32.10;;;;;;5171482;27;20440;-70
2022/05/30 12:47:24;;;;;;;4.90;1.50;;;30.40;31.00;;;;;;5170178;27;20457;-70
2022/05/30 12:49:52;;;;;;;4.73;1.50;;;31.90;28.30;;;;;;5150670;27;20456;-71
2022/05/30 12:52:21;;;;;;;3.07;1.30;;;33.40;26.70;;;;;;5170485;27;20498;-71
2022/05/30 12:55:08;;;;;;;3.63;1.10;;;34.00;24.70;;;;;;5171215;27;20444;-72
2022/05/30 12:57:39;;;;;;;1.80;1.50;;;34.00;25.00;;;;;;5171063;27;20433;-71
2022/05/30 13:00:15;;;;;;;3.30;1.63;;;34.10;25.00;;;;;;5171703;27;20464;-71
2022/05/30 13:03:15;;;;;;;2.93;1.40;;;34.50;24.10;;;;;;5172600;27;20450;-72
2022/05/30 13:05:59;;;;;;;2.10;1.30;;;34.40;22.80;;;;;;5140497;27;20488;-72
2022/05/30 13:09:00;;;;;;;3.87;1.30;;;33.60;23.30;;;;;;5171356;27;20493;-72
2022/05/30 13:12:00;;;;;;;2.40;1.00;;;32.70;24.40;;;;;;5159537;27;20444;-72
2022/05/30 13:14:54;;;;;;;3.10;1.20;;;31.90;23.30;;;;;;5159319;27;20452;-71
2022/05/30 13:17:33;;;;;;;1.73;1.07;;;31.00;24.30;;;;;;5135230;27;20441;-71
2022/05/30 13:20:06;;;;;;;2.03;1.17;;;30.00;25.50;;;;;;5168404;27;20464;-71
2022/05/30 13:22:37;;;;;;;3.07;1.47;;;29.20;26.40;;;;;;5169850;27;20429;-71
2022/05/30 13:25:08;;;;;;;4.00;1.50;;;28.50;27.40;;;;;;5169990;27;20430;-71
2022/05/30 13:27:34;;;;;;;2.03;1.20;;;28.10;27.40;;;;;;5170088;27;20440;-71
2022/05/30 13:30:03;;;;;;;4.37;1.10;;;28.10;26.70;;;;;;5168554;27;20460;-71
2022/05/30 13:32:31;;;;;;;2.57;1.47;;;28.00;27.60;;;;;;5171240;27;20549;-71
2022/05/30 13:35:00;;;;;;;1.70;1.00;;;27.80;27.30;;;;;;5171394;27;20504;-71